sensor_id;sensor_type;location;lat;lon;timestamp;P1;durP1;ratioP1;P2;durP2;ratioP2
59207;SDS011;44977;53.132;6.408;2023-08-06T00:04:06;14.38;;;12.63;;
59207;SDS011;44977;53.132;6.408;2023-08-06T00:09:07;14.60;;;12.27;;
59207;SDS011;44977;53.132;6.408;2023-08-06T00:14:08;14.13;;;11.55;;
59207;SDS011;44977;53.132;6.408;2023-08-06T00:19:09;13.43;;;11.82;;
59207;SDS011;44977;53.132;6.408;2023-08-06T00:24:09;14.32;;;12.35;;
59207;SDS011;44977;53.132;6.408;2023-08-06T00:29:10;14.77;;;13.27;;
59207;SDS011;44977;53.132;6.408;2023-08-06T00:34:11;15.23;;;13.63;;
59207;SDS011;44977;53.132;6.408;2023-08-06T00:39:11;15.85;;;14.20;;
59207;SDS011;44977;53.132;6.408;2023-08-06T00:44:12;16.52;;;14.20;;
59207;SDS011;44977;53.132;6.408;2023-08-06T00:49:13;16.20;;;14.02;;
59207;SDS011;44977;53.132;6.408;2023-08-06T00:54:13;16.70;;;13.90;;
59207;SDS011;44977;53.132;6.408;2023-08-06T00:59:15;15.48;;;13.82;;
59207;SDS011;44977;53.132;6.408;2023-08-06T01:04:15;15.93;;;12.95;;
59207;SDS011;44977;53.132;6.408;2023-08-06T01:09:35;15.15;;;13.48;;
59207;SDS011;44977;53.132;6.408;2023-08-06T01:19:55;16.97;;;12.67;;
59207;SDS011;44977;53.132;6.408;2023-08-06T01:24:56;13.25;;;11.73;;
59207;SDS011;44977;53.132;6.408;2023-08-06T01:30:01;14.73;;;11.75;;
59207;SDS011;44977;53.132;6.408;2023-08-06T01:35:07;13.30;;;11.55;;
59207;SDS011;44977;53.132;6.408;2023-08-06T01:40:10;11.57;;;10.35;;
59207;SDS011;44977;53.132;6.408;2023-08-06T01:45:12;13.70;;;11.38;;
59207;SDS011;44977;53.132;6.408;2023-08-06T01:50:13;11.80;;;9.98;;
59207;SDS011;44977;53.132;6.408;2023-08-06T01:55:14;12.13;;;10.80;;
59207;SDS011;44977;53.132;6.408;2023-08-06T02:00:14;14.23;;;11.52;;
59207;SDS011;44977;53.132;6.408;2023-08-06T02:05:15;13.70;;;11.38;;
59207;SDS011;44977;53.132;6.408;2023-08-06T02:10:16;13.80;;;12.10;;
59207;SDS011;44977;53.132;6.408;2023-08-06T02:15:16;14.80;;;13.25;;
59207;SDS011;44977;53.132;6.408;2023-08-06T02:20:17;16.20;;;13.60;;
59207;SDS011;44977;53.132;6.408;2023-08-06T02:25:18;16.75;;;14.95;;
59207;SDS011;44977;53.132;6.408;2023-08-06T02:30:18;15.85;;;14.10;;
59207;SDS011;44977;53.132;6.408;2023-08-06T02:35:19;16.58;;;14.88;;
59207;SDS011;44977;53.132;6.408;2023-08-06T02:40:20;16.75;;;15.10;;
59207;SDS011;44977;53.132;6.408;2023-08-06T02:45:21;20.80;;;15.18;;
59207;SDS011;44977;53.132;6.408;2023-08-06T02:50:21;17.90;;;16.00;;
59207;SDS011;44977;53.132;6.408;2023-08-06T02:55:22;16.95;;;14.45;;
59207;SDS011;44977;53.132;6.408;2023-08-06T03:00:23;16.25;;;14.55;;
59207;SDS011;44977;53.132;6.408;2023-08-06T03:05:23;16.05;;;14.35;;
59207;SDS011;44977;53.132;6.408;2023-08-06T03:10:24;16.00;;;14.38;;
59207;SDS011;44977;53.132;6.408;2023-08-06T03:15:25;15.40;;;13.80;;
59207;SDS011;44977;53.132;6.408;2023-08-06T03:20:25;16.00;;;14.30;;
59207;SDS011;44977;53.132;6.408;2023-08-06T03:25:26;14.63;;;12.60;;
59207;SDS011;44977;53.132;6.408;2023-08-06T03:30:27;14.45;;;13.02;;
59207;SDS011;44977;53.132;6.408;2023-08-06T03:35:27;15.98;;;14.23;;
59207;SDS011;44977;53.132;6.408;2023-08-06T03:40:28;14.07;;;12.27;;
59207;SDS011;44977;53.132;6.408;2023-08-06T03:45:29;16.00;;;14.40;;
59207;SDS011;44977;53.132;6.408;2023-08-06T03:50:30;15.38;;;13.27;;
59207;SDS011;44977;53.132;6.408;2023-08-06T03:55:30;15.68;;;14.10;;
59207;SDS011;44977;53.132;6.408;2023-08-06T04:00:31;14.35;;;12.85;;
59207;SDS011;44977;53.132;6.408;2023-08-06T04:05:32;15.23;;;13.65;;
59207;SDS011;44977;53.132;6.408;2023-08-06T04:10:33;14.70;;;13.20;;
59207;SDS011;44977;53.132;6.408;2023-08-06T04:15:34;16.10;;;14.40;;
59207;SDS011;44977;53.132;6.408;2023-08-06T04:20:35;16.92;;;13.85;;
59207;SDS011;44977;53.132;6.408;2023-08-06T04:25:43;16.65;;;15.00;;
59207;SDS011;44977;53.132;6.408;2023-08-06T04:30:44;14.77;;;13.25;;
59207;SDS011;44977;53.132;6.408;2023-08-06T04:35:45;14.85;;;13.35;;
59207;SDS011;44977;53.132;6.408;2023-08-06T04:40:45;15.88;;;13.73;;
59207;SDS011;44977;53.132;6.408;2023-08-06T04:45:47;15.85;;;14.02;;
59207;SDS011;44977;53.132;6.408;2023-08-06T04:50:49;15.73;;;13.90;;
59207;SDS011;44977;53.132;6.408;2023-08-06T04:55:50;16.92;;;14.02;;
59207;SDS011;44977;53.132;6.408;2023-08-06T05:00:51;16.20;;;13.80;;
59207;SDS011;44977;53.132;6.408;2023-08-06T05:05:53;16.38;;;13.35;;
59207;SDS011;44977;53.132;6.408;2023-08-06T05:10:54;14.48;;;12.80;;
59207;SDS011;44977;53.132;6.408;2023-08-06T05:15:55;16.58;;;12.82;;
59207;SDS011;44977;53.132;6.408;2023-08-06T05:20:56;15.27;;;13.20;;
59207;SDS011;44977;53.132;6.408;2023-08-06T05:25:57;14.32;;;12.27;;
59207;SDS011;44977;53.132;6.408;2023-08-06T05:30:57;13.90;;;12.38;;
59207;SDS011;44977;53.132;6.408;2023-08-06T05:35:58;14.57;;;12.90;;
59207;SDS011;44977;53.132;6.408;2023-08-06T05:40:59;13.60;;;12.05;;
59207;SDS011;44977;53.132;6.408;2023-08-06T05:45:59;14.13;;;12.15;;
59207;SDS011;44977;53.132;6.408;2023-08-06T05:51:00;13.63;;;11.70;;
59207;SDS011;44977;53.132;6.408;2023-08-06T05:56:01;13.35;;;11.90;;
59207;SDS011;44977;53.132;6.408;2023-08-06T06:01:02;12.55;;;11.23;;
59207;SDS011;44977;53.132;6.408;2023-08-06T06:06:02;13.57;;;11.70;;
59207;SDS011;44977;53.132;6.408;2023-08-06T06:11:03;12.73;;;11.10;;
59207;SDS011;44977;53.132;6.408;2023-08-06T06:16:04;12.60;;;11.25;;
59207;SDS011;44977;53.132;6.408;2023-08-06T06:21:05;13.10;;;11.65;;
59207;SDS011;44977;53.132;6.408;2023-08-06T06:26:06;15.75;;;11.23;;
59207;SDS011;44977;53.132;6.408;2023-08-06T06:31:06;13.85;;;11.00;;
59207;SDS011;44977;53.132;6.408;2023-08-06T06:36:07;11.43;;;10.23;;
59207;SDS011;44977;53.132;6.408;2023-08-06T06:41:08;12.10;;;10.35;;
59207;SDS011;44977;53.132;6.408;2023-08-06T06:46:08;12.38;;;10.32;;
59207;SDS011;44977;53.132;6.408;2023-08-06T06:51:09;11.30;;;9.85;;
59207;SDS011;44977;53.132;6.408;2023-08-06T06:56:10;13.60;;;10.70;;
59207;SDS011;44977;53.132;6.408;2023-08-06T07:01:11;11.30;;;10.05;;
59207;SDS011;44977;53.132;6.408;2023-08-06T07:06:12;12.02;;;9.88;;
59207;SDS011;44977;53.132;6.408;2023-08-06T07:11:13;11.57;;;9.80;;
59207;SDS011;44977;53.132;6.408;2023-08-06T07:16:13;10.68;;;9.23;;
59207;SDS011;44977;53.132;6.408;2023-08-06T07:21:14;11.30;;;9.48;;
59207;SDS011;44977;53.132;6.408;2023-08-06T07:26:15;11.80;;;9.52;;
59207;SDS011;44977;53.132;6.408;2023-08-06T07:31:16;11.68;;;9.32;;
59207;SDS011;44977;53.132;6.408;2023-08-06T07:36:17;10.20;;;9.07;;
59207;SDS011;44977;53.132;6.408;2023-08-06T07:41:18;11.15;;;8.32;;
59207;SDS011;44977;53.132;6.408;2023-08-06T07:46:19;10.27;;;8.93;;
59207;SDS011;44977;53.132;6.408;2023-08-06T07:51:19;10.73;;;8.73;;
59207;SDS011;44977;53.132;6.408;2023-08-06T07:56:20;9.45;;;8.15;;
59207;SDS011;44977;53.132;6.408;2023-08-06T08:01:21;9.50;;;7.32;;
59207;SDS011;44977;53.132;6.408;2023-08-06T08:06:22;9.20;;;7.38;;
59207;SDS011;44977;53.132;6.408;2023-08-06T08:11:23;9.73;;;6.90;;
59207;SDS011;44977;53.132;6.408;2023-08-06T08:16:24;8.32;;;6.47;;
59207;SDS011;44977;53.132;6.408;2023-08-06T08:21:24;9.40;;;5.93;;
59207;SDS011;44977;53.132;6.408;2023-08-06T08:26:25;7.75;;;5.70;;
59207;SDS011;44977;53.132;6.408;2023-08-06T08:31:27;7.70;;;4.68;;
59207;SDS011;44977;53.132;6.408;2023-08-06T08:36:28;8.43;;;5.63;;
59207;SDS011;44977;53.132;6.408;2023-08-06T08:41:33;8.00;;;5.32;;
59207;SDS011;44977;53.132;6.408;2023-08-06T08:46:35;6.85;;;4.03;;
59207;SDS011;44977;53.132;6.408;2023-08-06T08:51:38;6.35;;;3.72;;
59207;SDS011;44977;53.132;6.408;2023-08-06T08:56:39;5.88;;;3.20;;
59207;SDS011;44977;53.132;6.408;2023-08-06T09:01:39;6.53;;;3.40;;
59207;SDS011;44977;53.132;6.408;2023-08-06T09:06:42;6.10;;;2.90;;
59207;SDS011;44977;53.132;6.408;2023-08-06T09:11:46;5.32;;;2.72;;
59207;SDS011;44977;53.132;6.408;2023-08-06T09:16:49;6.60;;;2.78;;
59207;SDS011;44977;53.132;6.408;2023-08-06T09:21:51;4.65;;;2.45;;
59207;SDS011;44977;53.132;6.408;2023-08-06T09:26:52;4.63;;;2.20;;
59207;SDS011;44977;53.132;6.408;2023-08-06T09:31:53;4.80;;;2.35;;
59207;SDS011;44977;53.132;6.408;2023-08-06T09:36:54;4.78;;;2.30;;
59207;SDS011;44977;53.132;6.408;2023-08-06T09:41:58;4.63;;;2.20;;
59207;SDS011;44977;53.132;6.408;2023-08-06T09:47:02;4.43;;;2.13;;
59207;SDS011;44977;53.132;6.408;2023-08-06T09:52:04;4.70;;;2.10;;
59207;SDS011;44977;53.132;6.408;2023-08-06T09:57:05;4.72;;;2.22;;
59207;SDS011;44977;53.132;6.408;2023-08-06T10:02:08;5.05;;;2.30;;
59207;SDS011;44977;53.132;6.408;2023-08-06T10:12:13;4.57;;;2.30;;
59207;SDS011;44977;53.132;6.408;2023-08-06T10:17:18;4.57;;;2.38;;
59207;SDS011;44977;53.132;6.408;2023-08-06T10:22:19;4.75;;;2.50;;
59207;SDS011;44977;53.132;6.408;2023-08-06T10:32:46;3.88;;;2.10;;
59207;SDS011;44977;53.132;6.408;2023-08-06T10:37:49;4.70;;;2.30;;
59207;SDS011;44977;53.132;6.408;2023-08-06T10:42:49;4.65;;;2.28;;
59207;SDS011;44977;53.132;6.408;2023-08-06T10:47:50;5.10;;;2.17;;
59207;SDS011;44977;53.132;6.408;2023-08-06T10:52:51;5.28;;;2.15;;
59207;SDS011;44977;53.132;6.408;2023-08-06T10:57:52;5.00;;;1.90;;
59207;SDS011;44977;53.132;6.408;2023-08-06T11:02:54;4.75;;;2.08;;
59207;SDS011;44977;53.132;6.408;2023-08-06T11:07:58;5.28;;;2.38;;
59207;SDS011;44977;53.132;6.408;2023-08-06T11:13:02;4.95;;;2.40;;
59207;SDS011;44977;53.132;6.408;2023-08-06T11:18:07;5.03;;;2.30;;
59207;SDS011;44977;53.132;6.408;2023-08-06T11:23:09;4.13;;;2.10;;
59207;SDS011;44977;53.132;6.408;2023-08-06T11:28:11;3.90;;;2.13;;
59207;SDS011;44977;53.132;6.408;2023-08-06T11:33:12;4.22;;;2.10;;
59207;SDS011;44977;53.132;6.408;2023-08-06T11:38:13;5.60;;;2.13;;
59207;SDS011;44977;53.132;6.408;2023-08-06T11:43:14;5.40;;;2.30;;
59207;SDS011;44977;53.132;6.408;2023-08-06T11:48:15;4.47;;;2.10;;
59207;SDS011;44977;53.132;6.408;2023-08-06T11:53:17;4.32;;;2.10;;
59207;SDS011;44977;53.132;6.408;2023-08-06T11:58:18;5.85;;;2.40;;
59207;SDS011;44977;53.132;6.408;2023-08-06T12:03:19;5.20;;;2.10;;
59207;SDS011;44977;53.132;6.408;2023-08-06T12:08:20;4.43;;;2.10;;
59207;SDS011;44977;53.132;6.408;2023-08-06T12:13:26;5.15;;;2.42;;
59207;SDS011;44977;53.132;6.408;2023-08-06T12:18:27;3.88;;;2.20;;
59207;SDS011;44977;53.132;6.408;2023-08-06T12:23:28;5.85;;;2.20;;
59207;SDS011;44977;53.132;6.408;2023-08-06T12:28:29;3.97;;;2.00;;
59207;SDS011;44977;53.132;6.408;2023-08-06T12:33:29;4.78;;;2.30;;
59207;SDS011;44977;53.132;6.408;2023-08-06T12:38:30;5.30;;;2.08;;
59207;SDS011;44977;53.132;6.408;2023-08-06T12:43:33;4.88;;;2.20;;
59207;SDS011;44977;53.132;6.408;2023-08-06T12:48:34;5.03;;;2.20;;
59207;SDS011;44977;53.132;6.408;2023-08-06T12:53:35;4.03;;;1.95;;
59207;SDS011;44977;53.132;6.408;2023-08-06T12:58:35;5.57;;;2.28;;
59207;SDS011;44977;53.132;6.408;2023-08-06T13:03:36;4.50;;;2.35;;
59207;SDS011;44977;53.132;6.408;2023-08-06T13:08:37;4.85;;;2.45;;
59207;SDS011;44977;53.132;6.408;2023-08-06T13:13:38;3.60;;;1.92;;
59207;SDS011;44977;53.132;6.408;2023-08-06T13:18:39;4.93;;;2.05;;
59207;SDS011;44977;53.132;6.408;2023-08-06T13:23:40;4.15;;;2.10;;
59207;SDS011;44977;53.132;6.408;2023-08-06T13:28:41;4.10;;;2.17;;
59207;SDS011;44977;53.132;6.408;2023-08-06T13:33:42;4.20;;;2.20;;
59207;SDS011;44977;53.132;6.408;2023-08-06T13:38:45;6.05;;;2.22;;
59207;SDS011;44977;53.132;6.408;2023-08-06T13:43:45;4.40;;;2.13;;
59207;SDS011;44977;53.132;6.408;2023-08-06T13:48:47;5.00;;;2.10;;
59207;SDS011;44977;53.132;6.408;2023-08-06T13:53:51;3.72;;;2.13;;
59207;SDS011;44977;53.132;6.408;2023-08-06T13:58:52;4.47;;;2.30;;
59207;SDS011;44977;53.132;6.408;2023-08-06T14:03:53;4.13;;;2.03;;
59207;SDS011;44977;53.132;6.408;2023-08-06T14:08:54;4.40;;;2.20;;
59207;SDS011;44977;53.132;6.408;2023-08-06T14:13:54;6.13;;;2.00;;
59207;SDS011;44977;53.132;6.408;2023-08-06T14:18:55;4.32;;;1.90;;
59207;SDS011;44977;53.132;6.408;2023-08-06T14:23:56;5.25;;;2.10;;
59207;SDS011;44977;53.132;6.408;2023-08-06T14:28:56;4.10;;;2.10;;
59207;SDS011;44977;53.132;6.408;2023-08-06T14:33:57;4.53;;;2.00;;
59207;SDS011;44977;53.132;6.408;2023-08-06T14:38:58;4.63;;;2.08;;
59207;SDS011;44977;53.132;6.408;2023-08-06T14:43:58;5.28;;;2.20;;
59207;SDS011;44977;53.132;6.408;2023-08-06T14:48:59;4.20;;;2.28;;
59207;SDS011;44977;53.132;6.408;2023-08-06T14:54:00;3.78;;;2.03;;
59207;SDS011;44977;53.132;6.408;2023-08-06T14:59:01;4.55;;;2.22;;
59207;SDS011;44977;53.132;6.408;2023-08-06T15:04:01;5.03;;;2.30;;
59207;SDS011;44977;53.132;6.408;2023-08-06T15:09:02;4.50;;;1.92;;
59207;SDS011;44977;53.132;6.408;2023-08-06T15:14:03;5.63;;;2.25;;
59207;SDS011;44977;53.132;6.408;2023-08-06T15:19:07;3.80;;;2.08;;
59207;SDS011;44977;53.132;6.408;2023-08-06T15:24:07;5.68;;;2.25;;
59207;SDS011;44977;53.132;6.408;2023-08-06T15:29:08;4.40;;;1.90;;
59207;SDS011;44977;53.132;6.408;2023-08-06T15:34:09;5.07;;;2.20;;
59207;SDS011;44977;53.132;6.408;2023-08-06T15:39:10;4.72;;;2.22;;
59207;SDS011;44977;53.132;6.408;2023-08-06T15:44:11;4.43;;;1.90;;
59207;SDS011;44977;53.132;6.408;2023-08-06T15:49:12;3.58;;;1.80;;
59207;SDS011;44977;53.132;6.408;2023-08-06T15:54:12;4.00;;;2.00;;
59207;SDS011;44977;53.132;6.408;2023-08-06T15:59:23;5.07;;;2.33;;
59207;SDS011;44977;53.132;6.408;2023-08-06T16:04:28;3.05;;;1.77;;
59207;SDS011;44977;53.132;6.408;2023-08-06T16:09:30;5.15;;;2.20;;
59207;SDS011;44977;53.132;6.408;2023-08-06T16:14:31;4.32;;;2.08;;
59207;SDS011;44977;53.132;6.408;2023-08-06T16:19:32;4.32;;;2.20;;
59207;SDS011;44977;53.132;6.408;2023-08-06T16:24:32;5.68;;;2.35;;
59207;SDS011;44977;53.132;6.408;2023-08-06T16:29:35;4.18;;;2.30;;
59207;SDS011;44977;53.132;6.408;2023-08-06T16:34:37;4.35;;;2.17;;
59207;SDS011;44977;53.132;6.408;2023-08-06T16:39:38;5.50;;;2.30;;
59207;SDS011;44977;53.132;6.408;2023-08-06T16:44:39;4.43;;;2.13;;
59207;SDS011;44977;53.132;6.408;2023-08-06T16:49:40;5.28;;;1.90;;
59207;SDS011;44977;53.132;6.408;2023-08-06T16:54:41;3.92;;;1.73;;
59207;SDS011;44977;53.132;6.408;2023-08-06T16:59:42;3.95;;;1.90;;
59207;SDS011;44977;53.132;6.408;2023-08-06T17:04:45;4.60;;;1.80;;
59207;SDS011;44977;53.132;6.408;2023-08-06T17:09:46;6.38;;;2.00;;
59207;SDS011;44977;53.132;6.408;2023-08-06T17:14:47;4.53;;;2.15;;
59207;SDS011;44977;53.132;6.408;2023-08-06T17:19:47;5.07;;;2.45;;
59207;SDS011;44977;53.132;6.408;2023-08-06T17:24:48;6.63;;;2.70;;
59207;SDS011;44977;53.132;6.408;2023-08-06T17:29:49;6.85;;;2.67;;
59207;SDS011;44977;53.132;6.408;2023-08-06T17:34:50;5.43;;;2.20;;
59207;SDS011;44977;53.132;6.408;2023-08-06T17:39:50;5.85;;;2.00;;
59207;SDS011;44977;53.132;6.408;2023-08-06T17:44:51;4.93;;;2.20;;
59207;SDS011;44977;53.132;6.408;2023-08-06T17:49:52;3.80;;;1.95;;
59207;SDS011;44977;53.132;6.408;2023-08-06T17:54:52;4.47;;;2.28;;
59207;SDS011;44977;53.132;6.408;2023-08-06T17:59:55;4.00;;;2.00;;
59207;SDS011;44977;53.132;6.408;2023-08-06T18:04:56;4.15;;;1.90;;
59207;SDS011;44977;53.132;6.408;2023-08-06T18:09:57;5.72;;;2.60;;
59207;SDS011;44977;53.132;6.408;2023-08-06T18:14:57;5.72;;;2.33;;
59207;SDS011;44977;53.132;6.408;2023-08-06T18:19:58;6.47;;;2.75;;
59207;SDS011;44977;53.132;6.408;2023-08-06T18:24:59;8.45;;;2.95;;
59207;SDS011;44977;53.132;6.408;2023-08-06T18:30:02;8.10;;;3.08;;
59207;SDS011;44977;53.132;6.408;2023-08-06T18:35:04;6.50;;;3.30;;
59207;SDS011;44977;53.132;6.408;2023-08-06T18:40:06;6.35;;;3.17;;
59207;SDS011;44977;53.132;6.408;2023-08-06T18:45:07;6.68;;;3.63;;
59207;SDS011;44977;53.132;6.408;2023-08-06T18:50:08;6.55;;;3.05;;
59207;SDS011;44977;53.132;6.408;2023-08-06T18:55:09;6.72;;;3.13;;
59207;SDS011;44977;53.132;6.408;2023-08-06T19:00:10;7.43;;;3.30;;
59207;SDS011;44977;53.132;6.408;2023-08-06T19:05:11;5.45;;;3.22;;
59207;SDS011;44977;53.132;6.408;2023-08-06T19:10:12;5.55;;;2.90;;
59207;SDS011;44977;53.132;6.408;2023-08-06T19:15:13;6.55;;;3.10;;
59207;SDS011;44977;53.132;6.408;2023-08-06T19:20:14;6.30;;;2.92;;
59207;SDS011;44977;53.132;6.408;2023-08-06T19:25:15;6.85;;;2.92;;
59207;SDS011;44977;53.132;6.408;2023-08-06T19:30:15;5.78;;;2.72;;
59207;SDS011;44977;53.132;6.408;2023-08-06T19:35:16;5.78;;;2.92;;
59207;SDS011;44977;53.132;6.408;2023-08-06T19:40:17;5.28;;;2.85;;
59207;SDS011;44977;53.132;6.408;2023-08-06T19:45:18;7.30;;;2.85;;
59207;SDS011;44977;53.132;6.408;2023-08-06T19:50:19;6.60;;;3.00;;
59207;SDS011;44977;53.132;6.408;2023-08-06T19:55:21;6.20;;;3.30;;
59207;SDS011;44977;53.132;6.408;2023-08-06T20:00:22;6.18;;;3.10;;
59207;SDS011;44977;53.132;6.408;2023-08-06T20:05:24;6.00;;;3.72;;
59207;SDS011;44977;53.132;6.408;2023-08-06T20:10:24;7.30;;;3.72;;
59207;SDS011;44977;53.132;6.408;2023-08-06T20:15:25;6.90;;;3.65;;
59207;SDS011;44977;53.132;6.408;2023-08-06T20:20:26;6.97;;;3.80;;
59207;SDS011;44977;53.132;6.408;2023-08-06T20:25:26;6.32;;;3.88;;
59207;SDS011;44977;53.132;6.408;2023-08-06T20:30:27;6.93;;;4.28;;
59207;SDS011;44977;53.132;6.408;2023-08-06T20:35:28;7.47;;;4.28;;
59207;SDS011;44977;53.132;6.408;2023-08-06T20:40:29;7.63;;;4.15;;
59207;SDS011;44977;53.132;6.408;2023-08-06T20:45:29;6.50;;;3.83;;
59207;SDS011;44977;53.132;6.408;2023-08-06T20:50:30;9.13;;;4.90;;
59207;SDS011;44977;53.132;6.408;2023-08-06T20:55:31;7.28;;;4.43;;
59207;SDS011;44977;53.132;6.408;2023-08-06T21:00:32;7.53;;;4.40;;
59207;SDS011;44977;53.132;6.408;2023-08-06T21:05:34;8.05;;;4.50;;
59207;SDS011;44977;53.132;6.408;2023-08-06T21:10:34;7.05;;;4.25;;
59207;SDS011;44977;53.132;6.408;2023-08-06T21:15:35;7.93;;;4.50;;
59207;SDS011;44977;53.132;6.408;2023-08-06T21:20:36;9.80;;;4.68;;
59207;SDS011;44977;53.132;6.408;2023-08-06T21:25:36;7.38;;;4.38;;
59207;SDS011;44977;53.132;6.408;2023-08-06T21:30:37;7.00;;;4.07;;
59207;SDS011;44977;53.132;6.408;2023-08-06T21:35:38;6.63;;;3.85;;
59207;SDS011;44977;53.132;6.408;2023-08-06T21:40:38;8.25;;;4.03;;
59207;SDS011;44977;53.132;6.408;2023-08-06T21:45:39;7.80;;;4.28;;
59207;SDS011;44977;53.132;6.408;2023-08-06T21:50:40;8.15;;;4.35;;
59207;SDS011;44977;53.132;6.408;2023-08-06T21:55:40;8.13;;;4.47;;
59207;SDS011;44977;53.132;6.408;2023-08-06T22:00:41;7.80;;;4.28;;
59207;SDS011;44977;53.132;6.408;2023-08-06T22:05:42;7.63;;;4.35;;
59207;SDS011;44977;53.132;6.408;2023-08-06T22:10:42;8.15;;;4.82;;
59207;SDS011;44977;53.132;6.408;2023-08-06T22:15:43;8.57;;;4.80;;
59207;SDS011;44977;53.132;6.408;2023-08-06T22:20:44;8.05;;;4.70;;
59207;SDS011;44977;53.132;6.408;2023-08-06T22:25:45;7.00;;;4.50;;
59207;SDS011;44977;53.132;6.408;2023-08-06T22:30:46;9.63;;;4.07;;
59207;SDS011;44977;53.132;6.408;2023-08-06T22:35:47;7.65;;;4.28;;
59207;SDS011;44977;53.132;6.408;2023-08-06T22:40:47;8.05;;;4.25;;
59207;SDS011;44977;53.132;6.408;2023-08-06T22:45:49;7.93;;;4.00;;
59207;SDS011;44977;53.132;6.408;2023-08-06T22:50:49;8.68;;;3.72;;
59207;SDS011;44977;53.132;6.408;2023-08-06T22:55:50;8.35;;;3.70;;
59207;SDS011;44977;53.132;6.408;2023-08-06T23:00:51;7.57;;;3.67;;
59207;SDS011;44977;53.132;6.408;2023-08-06T23:05:51;6.82;;;3.40;;
59207;SDS011;44977;53.132;6.408;2023-08-06T23:10:52;9.35;;;3.55;;
59207;SDS011;44977;53.132;6.408;2023-08-06T23:15:53;6.75;;;3.28;;
59207;SDS011;44977;53.132;6.408;2023-08-06T23:20:53;8.70;;;3.95;;
59207;SDS011;44977;53.132;6.408;2023-08-06T23:25:54;7.40;;;3.40;;
59207;SDS011;44977;53.132;6.408;2023-08-06T23:30:55;9.55;;;3.65;;
59207;SDS011;44977;53.132;6.408;2023-08-06T23:35:55;7.50;;;3.30;;
59207;SDS011;44977;53.132;6.408;2023-08-06T23:40:56;8.65;;;3.22;;
59207;SDS011;44977;53.132;6.408;2023-08-06T23:45:57;6.07;;;3.28;;
59207;SDS011;44977;53.132;6.408;2023-08-06T23:50:59;7.35;;;3.00;;
59207;SDS011;44977;53.132;6.408;2023-08-06T23:55:59;7.80;;;3.10;;
